Time;durP1;ratioP1;P1;durP2;ratioP2;P2;SDS_P1;SDS_P2;PMS_P1;PMS_P2;Temp;Humidity;BMP_temperature;BMP_pressure;BME280_temperature;BME280_humidity;BME280_pressure;Samples;Min_cycle;Max_cycle;Signal;HPM_P1;HPM_P2
2022/09/19 00:00:40;;;;;;;1.55;1.00;;;;;;;15.19;47.64;99663.72;4976252;28;20216;-72
2022/09/19 00:03:06;;;;;;;1.30;0.80;;;;;;;15.19;47.67;99661.09;4974506;28;20695;-71
2022/09/19 00:05:32;;;;;;;0.80;0.80;;;;;;;15.18;47.81;99672.66;4978240;28;20231;-72
2022/09/19 00:07:57;;;;;;;1.77;0.87;;;;;;;15.19;48.20;99668.19;4975544;28;20204;-72
2022/09/19 00:10:22;;;;;;;2.37;0.80;;;;;;;15.18;47.96;99662.06;4977431;28;20306;-72
2022/09/19 00:12:48;;;;;;;1.63;0.87;;;;;;;15.18;48.09;99656.78;4974983;28;20290;-75
2022/09/19 00:15:13;;;;;;;1.40;0.80;;;;;;;15.17;48.30;99662.16;4976319;28;20203;-74
2022/09/19 00:17:39;;;;;;;1.00;0.80;;;;;;;15.16;48.09;99655.22;4977150;28;20733;-76
2022/09/19 00:20:06;;;;;;;1.07;0.80;;;;;;;15.12;48.26;99654.63;4976150;28;20228;-75
2022/09/19 00:22:32;;;;;;;1.00;0.90;;;;;;;15.10;48.32;99653.91;4975239;28;20627;-75
2022/09/19 00:24:58;;;;;;;0.90;0.80;;;;;;;15.11;48.35;99654.75;4977091;28;20584;-75
2022/09/19 00:27:25;;;;;;;1.17;1.03;;;;;;;15.11;48.41;99652.09;4975800;28;20981;-74
2022/09/19 00:29:52;;;;;;;1.08;0.73;;;;;;;15.10;48.49;99643.31;4956392;28;20454;-75
2022/09/19 00:32:19;;;;;;;1.50;0.80;;;;;;;15.10;48.63;99650.44;4973282;28;20688;-75
2022/09/19 00:34:50;;;;;;;2.83;0.70;;;;;;;15.08;48.67;99642.59;4976661;28;20306;-75
2022/09/19 00:37:20;;;;;;;7.55;1.08;;;;;;;15.08;48.74;99644.41;4976547;28;20302;-74
2022/09/19 00:39:46;;;;;;;1.00;0.90;;;;;;;15.06;48.90;99652.47;4976157;28;20220;-75
2022/09/19 00:42:23;;;;;;;1.10;0.90;;;;;;;15.04;48.80;99646.44;4974522;28;20238;-75
2022/09/19 00:44:54;;;;;;;2.97;0.98;;;;;;;15.04;49.05;99651.75;4975909;28;20195;-75
2022/09/19 00:47:25;;;;;;;2.28;0.70;;;;;;;15.05;49.17;99656.09;4977942;28;20212;-75
2022/09/19 00:49:54;;;;;;;1.42;0.70;;;;;;;15.08;49.05;99657.66;4977147;28;20227;-75
2022/09/19 00:52:43;;;;;;;1.45;1.20;;;;;;;15.06;49.21;99657.75;4974183;28;20214;-75
2022/09/19 00:55:09;;;;;;;1.20;0.90;;;;;;;15.04;49.46;99659.69;4978257;28;20218;-75
2022/09/19 00:57:50;;;;;;;1.63;0.90;;;;;;;15.01;49.77;99659.94;4975940;28;20635;-75
2022/09/19 01:00:16;;;;;;;0.75;0.75;;;;;;;15.00;49.64;99666.19;4976145;28;20238;-75
2022/09/19 01:02:41;;;;;;;0.77;0.73;;;;;;;14.98;50.00;99666.31;4974049;28;20192;-74
2022/09/19 01:05:07;;;;;;;0.80;0.80;;;;;;;14.98;50.35;99670.75;4957310;28;20894;-75
2022/09/19 01:07:38;;;;;;;0.90;0.80;;;;;;;14.97;50.46;99669.09;4976908;28;20664;-75
2022/09/19 01:10:34;;;;;;;0.98;0.82;;;;;;;14.92;50.66;99677.41;4975795;28;20294;-74
2022/09/19 01:13:09;;;;;;;2.45;0.88;;;;;;;14.86;50.99;99671.78;4960433;28;20264;-75
2022/09/19 01:15:54;;;;;;;0.80;0.80;;;;;;;14.82;51.27;99679.97;4970370;28;20719;-75
2022/09/19 01:18:38;;;;;;;0.90;0.80;;;;;;;14.78;51.59;99675.88;4976167;28;20644;-74
2022/09/19 01:24:30;;;;;;;1.27;1.17;;;;;;;14.75;52.19;99678.75;4969584;28;20326;-75
2022/09/19 01:27:23;;;;;;;2.10;0.95;;;;;;;14.74;52.19;99678.88;4968133;28;20483;-75
2022/09/19 01:29:55;;;;;;;1.10;0.93;;;;;;;14.71;52.39;99679.94;4976267;28;20230;-75
2022/09/19 01:32:27;;;;;;;1.70;0.80;;;;;;;14.70;52.50;99683.56;4954565;28;20613;-75
2022/09/19 01:35:00;;;;;;;2.95;0.88;;;;;;;14.72;52.53;99683.47;4957274;28;20227;-75
2022/09/19 01:37:52;;;;;;;1.25;0.80;;;;;;;14.72;52.78;99684.28;4957889;28;20463;-75
2022/09/19 01:40:18;;;;;;;2.75;0.80;;;;;;;14.74;52.69;99692.94;4950229;28;20239;-75
2022/09/19 01:42:55;;;;;;;1.45;1.00;;;;;;;14.74;52.90;99692.09;4952306;28;20229;-74
2022/09/19 01:45:24;;;;;;;0.70;0.70;;;;;;;14.74;52.86;99689.44;4957652;28;20735;-75
2022/09/19 01:48:05;;;;;;;1.10;1.00;;;;;;;14.74;52.90;99694.72;4957596;28;20203;-75
2022/09/19 01:50:52;;;;;;;2.28;0.90;;;;;;;14.71;52.97;99695.81;4975689;28;20231;-75
2022/09/19 01:53:37;;;;;;;3.47;0.90;;;;;;;14.71;53.22;99695.81;4956272;28;20749;-75
2022/09/19 01:56:28;;;;;;;1.17;0.80;;;;;;;14.72;53.23;99694.03;4959827;28;20261;-75
2022/09/19 01:59:11;;;;;;;1.17;0.80;;;;;;;14.73;53.22;99693.06;4973957;28;20354;-74
2022/09/19 02:01:51;;;;;;;1.17;0.82;;;;;;;14.71;53.24;99690.53;4956317;28;20207;-75
2022/09/19 02:04:41;;;;;;;1.10;0.95;;;;;;;14.76;53.81;99693.66;4972189;28;20467;-75
2022/09/19 02:07:29;;;;;;;4.03;0.98;;;;;;;14.72;53.76;99692.22;4955406;28;20219;-74
2022/09/19 02:10:08;;;;;;;2.03;1.20;;;;;;;14.70;53.76;99699.44;4960982;28;20269;-75
2022/09/19 02:12:38;;;;;;;1.52;0.70;;;;;;;14.66;53.91;99702.44;4953377;23;20307;-78
2022/09/19 02:15:13;;;;;;;1.10;0.88;;;;;;;14.64;54.10;99707.84;4918826;28;20288;-78
2022/09/19 02:18:08;;;;;;;1.20;0.80;;;;;;;14.64;54.05;99699.91;4933636;28;20285;-78
2022/09/19 02:20:40;;;;;;;2.15;0.75;;;;;;;14.66;54.02;99703.25;4934292;28;20231;-78
2022/09/19 02:23:18;;;;;;;1.20;1.10;;;;;;;14.66;54.16;99707.72;4930189;28;20578;-78
2022/09/19 02:25:45;;;;;;;1.55;0.85;;;;;;;14.64;54.31;99704.38;4933249;28;20562;-78
2022/09/19 02:28:18;;;;;;;1.55;0.90;;;;;;;14.62;54.35;99712.41;4934024;28;20197;-78
2022/09/19 02:30:44;;;;;;;1.85;1.00;;;;;;;14.61;54.33;99710.75;4934215;29;20205;-78
2022/09/19 02:33:13;;;;;;;1.00;0.90;;;;;;;14.60;54.46;99714.34;4949588;28;20232;-78
2022/09/19 02:36:01;;;;;;;1.65;1.30;;;;;;;14.60;54.84;99715.16;4930936;28;20213;-78
2022/09/19 02:38:39;;;;;;;2.17;1.00;;;;;;;14.59;54.91;99717.94;4930837;28;20300;-78
2022/09/19 02:41:23;;;;;;;3.35;1.40;;;;;;;14.57;54.99;99727.78;4934623;28;20627;-78
2022/09/19 02:44:31;;;;;;;2.47;0.85;;;;;;;14.53;55.16;99729.84;4944970;28;20212;-78
2022/09/19 02:47:09;;;;;;;1.00;0.70;;;;;;;14.49;55.22;99727.53;4918042;29;20673;-78
2022/09/19 02:49:52;;;;;;;1.20;0.90;;;;;;;14.47;55.43;99727.63;4931165;29;20779;-78
2022/09/19 02:52:25;;;;;;;1.10;0.80;;;;;;;14.45;55.56;99729.56;4931672;28;20221;-78
2022/09/19 02:54:56;;;;;;;1.42;1.10;;;;;;;14.42;55.58;99737.75;4934220;28;20264;-78
2022/09/19 02:57:24;;;;;;;1.08;0.98;;;;;;;14.42;55.62;99739.50;4952598;28;20216;-78
2022/09/19 02:59:55;;;;;;;3.50;0.98;;;;;;;14.39;55.67;99741.47;4934358;29;20209;-78
2022/09/19 03:02:25;;;;;;;0.80;0.70;;;;;;;14.39;56.01;99737.94;4953951;28;20225;-78
2022/09/19 03:05:08;;;;;;;1.23;0.90;;;;;;;14.37;55.91;99742.53;4953783;28;20205;-78
2022/09/19 03:07:40;;;;;;;1.90;1.08;;;;;;;14.35;56.12;99737.34;4937314;29;20198;-78
2022/09/19 03:10:22;;;;;;;1.75;1.00;;;;;;;14.32;56.41;99734.97;4941720;28;20307;-78
2022/09/19 03:12:57;;;;;;;1.35;1.00;;;;;;;14.26;56.45;99738.06;4936188;28;20649;-78
2022/09/19 03:15:36;;;;;;;1.13;1.02;;;;;;;14.21;56.67;99742.88;4953578;28;20205;-78
2022/09/19 03:18:06;;;;;;;2.28;1.00;;;;;;;14.16;56.92;99743.22;4933465;28;20571;-78
2022/09/19 03:20:36;;;;;;;1.55;1.45;;;;;;;14.13;57.17;99746.09;4952446;28;20559;-78
2022/09/19 03:23:07;;;;;;;2.25;1.15;;;;;;;14.09;57.26;99742.00;4935344;29;20719;-78
2022/09/19 03:25:34;;;;;;;1.33;0.93;;;;;;;14.04;57.62;99754.72;4935859;29;20414;-78
2022/09/19 03:28:00;;;;;;;1.20;1.10;;;;;;;14.00;57.62;99755.91;4937093;28;20259;-78
2022/09/19 03:30:26;;;;;;;1.50;0.90;;;;;;;14.00;57.74;99763.00;4935814;28;20208;-78
2022/09/19 03:32:52;;;;;;;2.13;1.00;;;;;;;13.91;58.24;99768.00;4936292;28;20665;-78
2022/09/19 03:35:17;;;;;;;1.10;0.97;;;;;;;13.82;58.57;99762.56;4933434;28;20376;-78
2022/09/19 03:37:44;;;;;;;1.52;1.42;;;;;;;13.71;58.79;99772.13;4934965;28;20281;-78
2022/09/19 03:40:11;;;;;;;1.00;0.90;;;;;;;13.65;59.04;99767.28;4936195;28;20655;-78
2022/09/19 03:42:37;;;;;;;1.83;1.10;;;;;;;13.58;59.26;99762.56;4936018;28;20228;-78
2022/09/19 03:45:04;;;;;;;4.23;0.90;;;;;;;13.50;59.41;99777.19;4951177;28;20197;-78
2022/09/19 03:47:30;;;;;;;4.18;1.55;;;;;;;13.44;59.79;99771.50;4953384;28;20231;-78
2022/09/19 03:49:55;;;;;;;1.00;0.90;;;;;;;13.38;59.69;99771.97;4934206;28;20205;-78
2022/09/19 03:52:21;;;;;;;2.13;1.00;;;;;;;13.32;59.69;99775.06;4934892;28;20331;-77
2022/09/19 03:54:46;;;;;;;2.90;1.83;;;;;;;13.27;59.96;99780.66;4934848;28;20936;-78
2022/09/19 03:57:13;;;;;;;1.33;1.00;;;;;;;13.20;60.09;99782.00;4937094;28;20209;-78
2022/09/19 03:59:41;;;;;;;6.47;1.23;;;;;;;13.12;60.24;99787.81;4930583;28;20204;-78
2022/09/19 04:02:09;;;;;;;1.00;0.82;;;;;;;13.05;60.34;99784.78;4933576;28;20398;-78
2022/09/19 04:04:35;;;;;;;2.53;1.15;;;;;;;12.99;60.58;99793.16;4932088;28;20193;-78
2022/09/19 04:07:02;;;;;;;1.03;0.77;;;;;;;12.94;60.59;99797.91;4933079;28;20231;-78
2022/09/19 04:09:27;;;;;;;1.58;1.45;;;;;;;12.91;60.68;99806.03;4939667;28;20193;-78
2022/09/19 04:11:58;;;;;;;1.77;1.00;;;;;;;12.87;60.78;99808.97;4937601;28;20402;-78
2022/09/19 04:14:26;;;;;;;4.30;1.38;;;;;;;12.83;61.01;99803.94;4930983;28;20230;-78
2022/09/19 04:16:51;;;;;;;1.10;1.00;;;;;;;12.81;60.99;99815.53;4935426;28;20299;-78
2022/09/19 04:19:18;;;;;;;2.87;0.93;;;;;;;12.76;61.15;99815.84;4934398;28;20306;-78
2022/09/19 04:22:09;;;;;;;1.88;1.50;;;;;;;12.74;61.30;99815.09;4936204;28;20480;-78
2022/09/19 04:24:42;;;;;;;3.17;1.50;;;;;;;12.72;61.34;99821.41;4930391;28;20205;-78
2022/09/19 04:27:40;;;;;;;2.00;0.90;;;;;;;12.69;61.42;99814.59;3905391;28;10018501;-78
2022/09/19 04:30:06;;;;;;;1.10;1.00;;;;;;;12.65;61.52;99818.38;4926017;28;20197;-77
2022/09/19 04:32:34;;;;;;;1.20;1.10;;;;;;;12.60;61.62;99821.31;4934506;28;20676;-78
2022/09/19 04:34:59;;;;;;;1.73;1.10;;;;;;;12.56;61.78;99826.91;4934596;28;20290;-77
2022/09/19 04:37:26;;;;;;;1.43;0.90;;;;;;;12.49;61.88;99831.75;4935350;28;20296;-77
2022/09/19 04:40:01;;;;;;;1.98;1.10;;;;;;;12.40;62.08;99835.03;4946818;28;20836;-77
2022/09/19 04:42:28;;;;;;;2.25;1.00;;;;;;;12.33;62.19;99834.56;4932892;28;20217;-77
2022/09/19 04:44:56;;;;;;;1.20;1.10;;;;;;;12.26;62.22;99842.97;4935352;29;20205;-77
2022/09/19 04:47:35;;;;;;;1.65;1.40;;;;;;;12.20;62.36;99840.78;4933438;28;20911;-77
2022/09/19 04:50:01;;;;;;;1.30;1.20;;;;;;;12.15;62.27;99839.31;4950923;28;20201;-77
2022/09/19 04:52:27;;;;;;;2.33;1.00;;;;;;;12.11;62.43;99834.34;4934749;28;20314;-77
2022/09/19 04:54:54;;;;;;;0.90;0.73;;;;;;;12.08;62.26;99843.28;4936220;29;20764;-77
2022/09/19 04:57:20;;;;;;;1.15;0.95;;;;;;;12.04;62.37;99841.78;4934977;29;20858;-77
2022/09/19 04:59:46;;;;;;;1.30;1.20;;;;;;;12.02;62.59;99843.69;4933829;28;20379;-77
2022/09/19 05:02:12;;;;;;;0.70;0.70;;;;;;;12.00;62.45;99850.00;4953052;28;20229;-77
2022/09/19 05:04:41;;;;;;;1.40;1.00;;;;;;;11.91;62.66;99854.09;4936592;29;20263;-77
2022/09/19 05:07:08;;;;;;;9.27;2.20;;;;;;;11.86;62.83;99859.63;4932450;29;20195;-77
2022/09/19 05:09:36;;;;;;;4.18;1.45;;;;;;;11.81;62.83;99860.84;4936156;29;20202;-78
2022/09/19 05:12:09;;;;;;;2.75;1.27;;;;;;;11.71;63.06;99858.78;4951269;28;20235;-77
2022/09/19 05:14:38;;;;;;;4.30;2.40;;;;;;;11.58;63.53;99867.56;4950238;28;20284;-77
2022/09/19 05:17:05;;;;;;;3.55;1.00;;;;;;;11.43;63.93;99866.78;4936413;29;20678;-77
2022/09/19 05:19:32;;;;;;;1.13;0.93;;;;;;;11.25;64.42;99864.34;4937554;28;20208;-77
2022/09/19 05:21:57;;;;;;;2.35;1.00;;;;;;;11.10;64.90;99875.81;4937600;29;20223;-80
2022/09/19 05:24:23;;;;;;;1.10;1.00;;;;;;;10.95;65.36;99867.06;4951762;28;20732;-80
2022/09/19 05:26:49;;;;;;;2.37;0.83;;;;;;;10.83;65.52;99873.09;4937011;29;20645;-80
2022/09/19 05:29:17;;;;;;;1.95;1.02;;;;;;;10.77;65.85;99878.69;4953206;28;20851;-80
2022/09/19 05:32:00;;;;;;;1.70;1.17;;;;;;;10.73;65.95;99883.31;4937263;29;20295;-80
2022/09/19 05:34:43;;;;;;;2.78;1.35;;;;;;;10.73;65.73;99887.72;4936770;29;20239;-80
2022/09/19 05:37:24;;;;;;;1.80;1.30;;;;;;;10.71;65.92;99886.94;4936776;29;20697;-80
2022/09/19 05:40:10;;;;;;;1.90;1.45;;;;;;;10.65;66.28;99897.84;4954037;28;20427;-80
2022/09/19 05:43:00;;;;;;;3.33;1.20;;;;;;;10.58;66.47;99890.28;4937824;29;20362;-80
2022/09/19 05:45:27;;;;;;;5.60;1.88;;;;;;;10.60;66.30;99888.44;4937323;28;20205;-80
2022/09/19 05:47:59;;;;;;;2.20;1.40;;;;;;;10.68;66.17;99895.88;4935095;28;20593;-80
2022/09/19 05:50:25;;;;;;;1.52;1.13;;;;;;;10.74;65.87;99900.75;4932835;29;20469;-80
2022/09/19 05:55:36;;;;;;;26.33;7.97;;;;;;;10.89;65.47;99904.25;4947896;28;20247;-80
2022/09/19 05:58:06;;;;;;;9.50;2.30;;;;;;;10.99;65.35;99917.66;4936435;28;20201;-81
2022/09/19 06:00:32;;;;;;;2.50;1.67;;;;;;;11.04;65.35;99910.34;4933498;29;20271;-80
2022/09/19 06:03:02;;;;;;;3.47;2.10;;;;;;;11.11;65.18;99913.47;4934462;29;20482;-80
2022/09/19 06:05:32;;;;;;;9.65;1.90;;;;;;;11.12;65.30;99912.50;4935733;28;20208;-80
2022/09/19 06:07:58;;;;;;;3.20;1.25;;;;;;;11.12;65.21;99907.25;4953428;28;20429;-80
2022/09/19 06:10:25;;;;;;;1.88;1.17;;;;;;;11.11;65.43;99911.69;4936866;28;20529;-80
2022/09/19 06:12:54;;;;;;;1.23;1.08;;;;;;;11.10;65.57;99917.88;4937703;29;21072;-80
2022/09/19 06:15:20;;;;;;;5.45;1.30;;;;;;;11.12;65.53;99920.41;4952108;28;20221;-80
2022/09/19 06:17:49;;;;;;;3.10;1.83;;;;;;;11.17;65.14;99927.06;4952875;28;20222;-80
2022/09/19 06:20:17;;;;;;;2.92;1.80;;;;;;;11.26;64.98;99933.53;4952628;28;20580;-81
2022/09/19 06:22:45;;;;;;;2.38;1.20;;;;;;;11.35;64.83;99926.91;4952351;28;20236;-80
2022/09/19 06:25:16;;;;;;;1.70;1.48;;;;;;;11.45;64.62;99930.63;4935434;29;20208;-80
2022/09/19 06:27:47;;;;;;;2.67;1.57;;;;;;;11.54;64.50;99939.75;4936806;28;20402;-80
2022/09/19 06:30:12;;;;;;;4.22;1.40;;;;;;;11.63;64.15;99937.38;4937458;28;20901;-80
2022/09/19 06:32:56;;;;;;;2.95;1.30;;;;;;;11.71;63.98;99940.38;4943308;29;20231;-80
2022/09/19 06:35:34;;;;;;;3.60;1.40;;;;;;;11.77;64.10;99943.56;4942482;29;20235;-80
2022/09/19 06:38:07;;;;;;;1.67;1.30;;;;;;;11.79;64.02;99945.16;4941505;29;20212;-80
2022/09/19 06:40:37;;;;;;;2.05;1.20;;;;;;;11.85;63.95;99942.13;4942120;28;20213;-80
2022/09/19 06:43:11;;;;;;;3.17;1.40;;;;;;;11.93;63.84;99939.03;4957121;28;20243;-81
2022/09/19 06:45:56;;;;;;;3.08;1.23;;;;;;;12.03;63.55;99950.69;4943009;29;20227;-81
2022/09/19 06:48:41;;;;;;;2.67;1.58;;;;;;;12.12;63.33;99943.97;4941656;29;20227;-80
2022/09/19 06:51:39;;;;;;;3.13;1.30;;;;;;;12.21;62.99;99946.03;4938168;29;21178;-81
2022/09/19 06:54:05;;;;;;;1.87;1.00;;;;;;;12.23;62.86;99945.91;4938350;29;20244;-81
2022/09/19 06:56:31;;;;;;;2.87;1.30;;;;;;;12.33;62.75;99955.75;4938939;28;20752;-81
2022/09/19 06:58:56;;;;;;;1.30;1.20;;;;;;;12.43;62.43;99958.63;4938738;29;20562;-80
2022/09/19 07:01:22;;;;;;;1.67;1.17;;;;;;;12.52;62.32;99958.00;4937558;29;20480;-81
2022/09/19 07:03:49;;;;;;;3.08;1.40;;;;;;;12.63;61.88;99952.88;4952969;28;20467;-81
2022/09/19 07:06:20;;;;;;;5.88;1.25;;;;;;;12.73;61.50;99952.28;4954226;28;20209;-81
2022/09/19 07:09:04;;;;;;;2.50;1.75;;;;;;;12.80;61.14;99958.84;4937658;29;20240;-81
2022/09/19 07:11:30;;;;;;;2.42;1.25;;;;;;;12.83;61.13;99956.81;4953743;28;20240;-81
2022/09/19 07:13:56;;;;;;;5.82;2.50;;;;;;;12.91;60.80;99960.72;4954331;28;20225;-81
2022/09/19 07:16:22;;;;;;;2.47;1.48;;;;;;;12.97;60.57;99957.69;4937802;29;20267;-81
2022/09/19 07:18:48;;;;;;;1.70;1.30;;;;;;;13.07;60.19;99953.47;4953822;28;20682;-81
2022/09/19 07:21:34;;;;;;;3.58;1.35;;;;;;;13.14;59.84;99959.16;4937522;29;20626;-80
2022/09/19 07:24:04;;;;;;;4.65;1.45;;;;;;;13.22;59.59;99954.19;4937055;28;20219;-81
2022/09/19 07:26:52;;;;;;;1.10;1.00;;;;;;;13.28;58.82;99967.84;4937898;28;20338;-81
2022/09/19 07:29:20;;;;;;;0.93;0.82;;;;;;;13.31;58.14;99966.78;4953275;28;20557;-80
2022/09/19 07:31:46;;;;;;;1.80;1.10;;;;;;;13.38;57.84;99969.84;4935315;29;20225;-81
2022/09/19 07:34:12;;;;;;;1.63;1.03;;;;;;;13.38;57.75;99969.84;4951984;28;20236;-81
2022/09/19 07:36:45;;;;;;;3.72;2.90;;;;;;;13.52;57.36;99976.78;4937594;29;20232;-81
2022/09/19 07:39:10;;;;;;;1.90;1.13;;;;;;;13.53;57.19;99986.41;4939523;28;20271;-81
2022/09/19 07:41:57;;;;;;;3.35;0.90;;;;;;;13.66;56.77;99984.59;4935938;28;20240;-81
2022/09/19 07:44:44;;;;;;;3.00;1.13;;;;;;;14.47;54.38;99989.28;4937470;28;20792;-80
2022/09/19 07:47:29;;;;;;;3.55;1.60;;;;;;;15.59;51.97;99979.97;4938342;29;20532;-81
2022/09/19 07:50:13;;;;;;;6.97;1.20;;;;;;;16.78;49.12;99983.59;4937105;29;20206;-81
2022/09/19 07:52:47;;;;;;;1.10;0.98;;;;;;;17.84;46.25;99979.84;4937171;28;20418;-82
2022/09/19 07:55:18;;;;;;;3.38;1.40;;;;;;;18.36;43.40;99987.66;4951812;28;20608;-81
2022/09/19 07:57:52;;;;;;;1.25;0.88;;;;;;;18.88;41.82;99993.59;4933962;29;20574;-82
2022/09/19 08:00:19;;;;;;;3.85;1.25;;;;;;;19.55;40.47;99980.22;4934114;28;20209;-82
2022/09/19 08:03:11;;;;;;;2.10;1.10;;;;;;;20.40;38.84;99973.75;4936059;29;20316;-81
2022/09/19 08:05:39;;;;;;;1.17;1.08;;;;;;;20.76;37.05;99974.59;4932929;29;20621;-82
2022/09/19 08:08:07;;;;;;;1.90;1.00;;;;;;;20.88;36.95;99985.88;4934773;29;20215;-81
2022/09/19 08:10:34;;;;;;;2.53;1.10;;;;;;;21.01;36.76;99985.50;4933684;29;20466;-82
2022/09/19 08:13:02;;;;;;;5.60;3.07;;;;;;;21.41;35.66;99979.63;4981246;23;20566;-80
2022/09/19 08:15:29;;;;;;;2.20;1.77;;;;;;;21.62;35.49;99989.06;4952155;28;20993;-79
2022/09/19 08:18:05;;;;;;;4.97;2.17;;;;;;;21.60;35.09;99989.22;4955873;28;20457;-78
2022/09/19 08:20:33;;;;;;;3.70;2.37;;;;;;;21.71;34.51;99992.59;4965549;28;20522;-77
2022/09/19 08:23:05;;;;;;;2.70;1.30;;;;;;;21.31;34.78;99986.88;4945208;28;20975;-78
2022/09/19 08:25:32;;;;;;;6.70;2.50;;;;;;;20.86;35.51;100001.22;4946306;28;20455;-80
2022/09/19 08:27:58;;;;;;;1.47;1.10;;;;;;;20.28;36.49;99990.97;4931083;28;21047;-77
2022/09/19 08:30:26;;;;;;;2.20;1.30;;;;;;;19.70;37.87;99992.13;4931927;28;20538;-78
2022/09/19 08:32:52;;;;;;;4.57;2.50;;;;;;;19.77;37.83;99995.91;4945047;28;20211;-77
2022/09/19 08:35:19;;;;;;;3.50;1.50;;;;;;;20.22;36.88;99994.22;4930830;28;20517;-77
2022/09/19 08:37:54;;;;;;;1.33;0.90;;;;;;;20.71;35.90;99986.72;4931566;28;20445;-77
2022/09/19 08:40:30;;;;;;;2.63;1.10;;;;;;;21.00;35.45;99989.13;4933065;28;20910;-79
2022/09/19 08:43:12;;;;;;;3.00;1.00;;;;;;;21.39;34.61;99989.63;4947943;28;20539;-77
2022/09/19 08:46:20;;;;;;;4.03;1.90;;;;;;;21.79;34.04;99990.81;4930894;28;20554;-79
2022/09/19 08:49:00;;;;;;;1.20;1.10;;;;;;;21.78;34.08;99983.78;4945424;28;20428;-81
2022/09/19 08:51:33;;;;;;;2.73;1.20;;;;;;;21.46;34.06;99989.81;4944738;28;21059;-77
2022/09/19 08:54:09;;;;;;;1.20;1.00;;;;;;;21.58;34.09;99987.72;4932584;28;20539;-80
2022/09/19 08:56:38;;;;;;;2.60;1.70;;;;;;;21.38;33.59;99982.56;4947679;28;20468;-82
2022/09/19 08:59:10;;;;;;;4.37;1.50;;;;;;;21.50;33.87;99990.34;4928089;28;20510;-77
2022/09/19 09:01:55;;;;;;;2.03;1.03;;;;;;;21.39;33.77;99992.28;4947179;28;20515;-80
2022/09/19 09:04:54;;;;;;;3.08;1.60;;;;;;;20.86;34.08;99995.88;4930826;28;20483;-77
2022/09/19 09:07:32;;;;;;;3.37;1.73;;;;;;;20.32;35.15;99995.84;4946605;28;20868;-80
2022/09/19 09:10:45;;;;;;;6.70;1.40;;;;;;;19.66;35.97;100004.91;4930111;28;20461;-80
2022/09/19 09:13:24;;;;;;;6.93;1.67;;;;;;;18.99;37.00;100011.22;4946665;28;20526;-76
2022/09/19 09:16:05;;;;;;;3.23;1.20;;;;;;;18.60;37.85;100002.38;4929454;28;20470;-79
2022/09/19 09:18:40;;;;;;;2.40;1.10;;;;;;;18.46;38.57;100003.63;4945415;28;20474;-77
2022/09/19 09:21:21;;;;;;;3.63;1.30;;;;;;;18.58;38.59;99991.88;4947623;28;20462;-77
2022/09/19 09:23:55;;;;;;;2.37;1.17;;;;;;;18.88;38.29;99990.09;4945691;28;20521;-80
2022/09/19 09:26:36;;;;;;;2.60;1.10;;;;;;;19.04;37.67;99986.81;4930390;28;20472;-78
2022/09/19 09:29:14;;;;;;;2.77;1.27;;;;;;;18.76;36.29;99990.22;4931423;28;20465;-79
2022/09/19 09:31:52;;;;;;;2.67;1.30;;;;;;;18.78;36.16;99990.91;4930353;28;20458;-78
2022/09/19 09:34:36;;;;;;;3.00;1.30;;;;;;;18.82;36.38;99988.81;4946418;28;20251;-77
2022/09/19 09:37:18;;;;;;;2.70;1.30;;;;;;;18.82;36.41;99979.97;4930559;28;20452;-77
2022/09/19 09:40:09;;;;;;;5.00;2.17;;;;;;;18.75;36.82;99975.22;4929991;28;20457;-76
2022/09/19 09:42:45;;;;;;;4.17;1.20;;;;;;;18.83;37.03;99985.19;4929200;28;20483;-79
2022/09/19 09:45:20;;;;;;;2.00;1.17;;;;;;;18.97;36.95;99981.25;4946047;28;20462;-81
2022/09/19 09:48:24;;;;;;;4.53;3.17;;;;;;;19.12;37.02;99973.63;4928596;28;20475;-81
2022/09/19 09:50:52;;;;;;;4.73;1.50;;;;;;;19.26;36.91;99978.53;4931277;28;20546;-79
2022/09/19 09:53:29;;;;;;;2.60;1.30;;;;;;;19.37;36.56;99967.69;4930697;28;21132;-76
2022/09/19 09:56:16;;;;;;;2.23;1.00;;;;;;;19.39;36.28;99972.88;4930746;28;20452;-79
2022/09/19 10:05:16;;;;;;;3.20;2.00;;;;;;;18.65;37.88;99977.03;4932893;28;20823;-79
2022/09/19 10:08:11;;;;;;;1.80;1.00;;;;;;;18.95;37.23;99969.88;4936578;28;20464;-79
2022/09/19 10:10:38;;;;;;;3.00;1.50;;;;;;;19.26;36.77;99961.69;4927015;28;20633;-80
2022/09/19 10:13:39;;;;;;;4.60;2.00;;;;;;;19.34;37.03;99959.16;4934996;28;20589;-76
2022/09/19 10:16:06;;;;;;;3.47;1.40;;;;;;;19.40;37.33;99964.72;4921108;28;20529;-79
2022/09/19 10:18:43;;;;;;;6.33;1.40;;;;;;;19.47;37.06;99959.66;4949869;28;20467;-76
2022/09/19 10:21:13;;;;;;;2.00;1.00;;;;;;;19.51;36.96;99957.53;4933193;28;21047;-80
2022/09/19 10:23:48;;;;;;;4.63;1.50;;;;;;;19.65;36.58;99952.56;4951305;28;20893;-77
2022/09/19 10:26:27;;;;;;;1.50;0.90;;;;;;;19.64;35.68;99953.56;4935280;28;20557;-80
2022/09/19 10:29:04;;;;;;;6.00;1.37;;;;;;;19.65;35.55;99944.56;4935637;28;20879;-77
2022/09/19 10:31:38;;;;;;;4.13;1.83;;;;;;;19.81;35.67;99946.63;4936685;28;21032;-78
2022/09/19 10:34:34;;;;;;;4.33;1.60;;;;;;;19.92;35.17;99945.56;4936692;28;20489;-80
2022/09/19 10:37:02;;;;;;;2.27;1.17;;;;;;;19.93;35.62;99951.75;4935434;28;20540;-76
2022/09/19 10:39:29;;;;;;;3.60;1.47;;;;;;;19.91;35.54;99945.75;4935137;28;20471;-76
2022/09/19 10:41:55;;;;;;;5.53;1.20;;;;;;;19.85;35.45;99945.34;4950132;28;20877;-76
2022/09/19 10:44:25;;;;;;;3.60;1.20;;;;;;;19.75;35.35;99946.38;4948724;28;20543;-78
2022/09/19 10:46:58;;;;;;;2.23;1.10;;;;;;;19.73;35.38;99945.69;4950574;28;20205;-80
2022/09/19 10:49:45;;;;;;;4.13;1.43;;;;;;;19.59;35.81;99947.81;4934041;28;20954;-79
2022/09/19 10:52:20;;;;;;;7.03;1.10;;;;;;;19.45;36.26;99945.66;4950368;28;20523;-79
2022/09/19 10:54:51;;;;;;;5.53;1.10;;;;;;;19.44;36.48;99947.47;4934390;28;20488;-77
2022/09/19 10:57:36;;;;;;;3.23;1.20;;;;;;;19.51;36.07;99941.56;4950805;28;20901;-81
2022/09/19 11:00:04;;;;;;;2.33;1.50;;;;;;;19.61;35.92;99943.19;4951527;28;20459;-78
2022/09/19 11:02:33;;;;;;;7.63;1.63;;;;;;;19.69;36.25;99947.81;4936085;28;20524;-80
2022/09/19 11:05:03;;;;;;;2.00;0.97;;;;;;;19.77;36.20;99947.91;4951139;28;21182;-80
2022/09/19 11:07:48;;;;;;;2.03;0.97;;;;;;;19.88;35.07;99946.88;4934570;28;20797;-76
2022/09/19 11:10:37;;;;;;;2.90;1.00;;;;;;;19.83;34.79;99946.47;4934579;28;20494;-77
2022/09/19 11:13:15;;;;;;;2.37;1.10;;;;;;;19.76;35.02;99956.03;4934598;28;21001;-77
2022/09/19 11:16:01;;;;;;;3.13;0.90;;;;;;;19.71;34.75;99950.31;4934064;28;20784;-77
2022/09/19 11:18:52;;;;;;;1.13;0.87;;;;;;;19.40;34.64;99953.25;4948838;28;20467;-79
2022/09/19 11:21:34;;;;;;;2.60;1.63;;;;;;;19.21;35.43;99951.47;4952007;28;20456;-79
2022/09/19 11:24:25;;;;;;;3.37;1.40;;;;;;;19.13;35.19;99946.88;4934744;28;20469;-81
2022/09/19 11:27:02;;;;;;;2.37;0.80;;;;;;;19.02;34.10;99947.03;4934265;28;20617;-79
2022/09/19 11:29:46;;;;;;;3.40;1.40;;;;;;;19.00;34.04;99949.84;4935880;28;20808;-77
2022/09/19 11:32:45;;;;;;;0.90;0.70;;;;;;;18.94;33.96;99946.91;4949698;28;20774;-79
2022/09/19 11:35:13;;;;;;;1.40;1.00;;;;;;;18.98;33.60;99949.16;4949560;28;20560;-76
2022/09/19 11:38:07;;;;;;;2.43;0.77;;;;;;;18.85;34.68;99951.28;4950091;28;21462;-77
2022/09/19 11:40:41;;;;;;;1.20;0.90;;;;;;;18.76;35.27;99947.63;4936161;28;20449;-76
2022/09/19 11:43:31;;;;;;;2.97;1.03;;;;;;;18.63;35.98;99956.84;4936530;28;20463;-79
2022/09/19 11:46:31;;;;;;;1.10;0.90;;;;;;;18.68;36.43;99952.78;4949621;28;20455;-80
2022/09/19 11:49:20;;;;;;;1.73;1.27;;;;;;;18.76;36.11;99955.63;4934492;28;20471;-80
2022/09/19 11:52:17;;;;;;;2.57;1.10;;;;;;;18.45;35.65;99948.75;4933754;28;20468;-78
2022/09/19 11:54:45;;;;;;;2.90;1.20;;;;;;;18.50;35.63;99954.50;4933196;28;20547;-79
2022/09/19 11:57:26;;;;;;;1.93;1.40;;;;;;;18.35;35.40;99946.91;4950097;28;20460;-77
2022/09/19 12:00:00;;;;;;;1.43;1.33;;;;;;;18.45;35.63;99946.94;4936067;28;20890;-78
2022/09/19 12:02:43;;;;;;;1.43;0.80;;;;;;;18.45;35.35;99938.13;4935894;28;20675;-77
2022/09/19 12:05:27;;;;;;;2.20;0.87;;;;;;;18.56;35.22;99935.31;4935142;28;20460;-78
2022/09/19 12:08:08;;;;;;;2.73;0.90;;;;;;;18.61;35.03;99938.38;4933469;28;20822;-77
2022/09/19 12:10:39;;;;;;;1.20;1.00;;;;;;;18.72;35.08;99930.25;4947671;28;20847;-77
2022/09/19 12:13:27;;;;;;;1.63;0.90;;;;;;;18.77;35.56;99921.88;4934660;28;21017;-79
2022/09/19 12:16:05;;;;;;;4.73;0.90;;;;;;;18.86;35.71;99931.66;4949718;28;20678;-78
2022/09/19 12:18:45;;;;;;;1.87;0.70;;;;;;;18.87;35.81;99916.53;4931212;28;21034;-77
2022/09/19 12:21:12;;;;;;;3.50;1.00;;;;;;;18.89;35.79;99915.41;4933386;28;21312;-79